Time;durP1;ratioP1;P1;durP2;ratioP2;P2;SDS_P1;SDS_P2;PMS_P1;PMS_P2;Temp;Humidity;BMP_temperature;BMP_pressure;BME280_temperature;BME280_humidity;BME280_pressure;Samples;Min_cycle;Max_cycle;Signal;HPM_P1;HPM_P2
2021/04/13 00:00:30;;;;;;;3.83;0.20;;;;;;;1.26;52.24;102710.91;5064833;28;20047;-68
2021/04/13 00:03:00;;;;;;;5.35;0.55;;;;;;;0.88;53.17;102707.19;5074854;28;20319;-68
2021/04/13 00:05:44;;;;;;;4.30;0.30;;;;;;;0.92;53.22;102711.59;5075767;28;20041;-66
2021/04/13 00:08:14;;;;;;;4.82;0.30;;;;;;;0.75;53.75;102708.56;5079103;28;20020;-67
2021/04/13 00:10:49;;;;;;;1.05;0.40;;;;;;;0.94;53.03;102706.50;5065380;28;20038;-66
2021/04/13 00:13:16;;;;;;;1.00;0.20;;;;;;;1.01;52.66;102701.56;5077953;28;20527;-66
2021/04/13 00:15:44;;;;;;;3.33;0.30;;;;;;;0.73;53.49;102706.75;5078925;28;20092;-67
2021/04/13 00:18:12;;;;;;;3.92;0.20;;;;;;;0.90;53.15;102706.44;5081316;28;20032;-68
2021/04/13 00:20:41;;;;;;;0.85;0.22;;;;;;;1.00;53.06;102711.84;5076739;28;20032;-66
2021/04/13 00:23:09;;;;;;;2.65;0.65;;;;;;;0.93;52.89;102710.78;5080860;28;20032;-67
2021/04/13 00:26:00;;;;;;;3.72;0.30;;;;;;;0.59;53.60;102714.94;5095859;28;20073;-65
2021/04/13 00:28:32;;;;;;;0.88;0.30;;;;;;;0.74;53.67;102699.06;5072294;28;20964;-65
2021/04/13 00:31:01;;;;;;;6.70;0.22;;;;;;;0.71;53.44;102698.13;5079558;28;20050;-65
2021/04/13 00:33:32;;;;;;;8.00;0.30;;;;;;;0.40;54.33;102698.03;5077487;28;20046;-66
2021/04/13 00:36:12;;;;;;;4.15;0.30;;;;;;;0.84;53.01;102700.22;5081624;28;20508;-66
2021/04/13 00:38:42;;;;;;;2.70;0.20;;;;;;;0.90;52.93;102698.72;5078161;28;20028;-66
2021/04/13 00:41:11;;;;;;;3.05;0.13;;;;;;;0.95;52.55;102690.22;5080592;28;20047;-67
2021/04/13 00:43:47;;;;;;;1.33;0.30;;;;;;;0.80;52.89;102688.09;5079524;28;20033;-66
2021/04/13 00:46:20;;;;;;;2.35;0.20;;;;;;;0.94;52.47;102691.94;5080319;28;20039;-66
2021/04/13 00:48:46;;;;;;;1.48;0.20;;;;;;;0.83;53.11;102695.91;5079887;28;20054;-66
2021/04/13 00:51:39;;;;;;;7.28;0.52;;;;;;;0.77;53.55;102693.13;5078402;28;20028;-67
2021/04/13 00:54:35;;;;;;;;;;;;;;;1.07;53.24;102704.34;5078942;28;20063;-66
2021/04/13 00:57:14;;;;;;;4.60;0.30;;;;;;;1.15;53.24;102698.53;5060683;28;20003;-66
2021/04/13 00:59:40;;;;;;;1.35;0.38;;;;;;;1.26;53.00;102698.03;5093551;28;20060;-66
2021/04/13 01:02:11;;;;;;;4.90;1.17;;;;;;;1.48;51.87;102691.78;5079418;28;20370;-66
2021/04/13 01:04:49;;;;;;;11.15;1.75;;;;;;;1.37;52.19;102698.28;5076647;28;20098;-65
2021/04/13 01:07:19;;;;;;;8.00;1.23;;;;;;;0.92;53.13;102698.75;5080286;28;20074;-66
2021/04/13 01:09:48;;;;;;;8.05;1.77;;;;;;;0.93;53.08;102690.19;5078251;28;20657;-65
2021/04/13 01:12:27;;;;;;;8.00;0.95;;;;;;;0.76;53.85;102694.84;5079853;28;20032;-66
2021/04/13 01:14:53;;;;;;;7.55;0.73;;;;;;;1.05;53.02;102689.69;5074467;28;20496;-66
2021/04/13 01:17:21;;;;;;;7.68;0.65;;;;;;;1.22;52.47;102697.91;5063191;28;20036;-66
2021/04/13 01:20:14;;;;;;;2.53;0.30;;;;;;;0.77;53.26;102698.28;5058294;28;20043;-66
2021/04/13 01:25:18;;;;;;;3.30;0.20;;;;;;;1.09;53.09;102702.69;5078172;28;20040;-67
2021/04/13 01:28:08;;;;;;;4.78;0.25;;;;;;;1.50;52.41;102710.72;5071406;28;20127;-65
2021/04/13 01:30:39;;;;;;;3.92;0.30;;;;;;;1.40;52.47;102716.47;5082273;28;20032;-66
2021/04/13 01:33:39;;;;;;;5.90;0.63;;;;;;;1.45;52.69;102720.03;5077190;28;20077;-66
2021/04/13 01:36:21;;;;;;;3.83;0.10;;;;;;;1.43;53.24;102711.38;5054452;28;20063;-66
2021/04/13 01:39:28;;;;;;;5.05;0.32;;;;;;;1.48;53.71;102704.69;5078641;28;20036;-66
2021/04/13 01:41:58;;;;;;;1.95;0.30;;;;;;;1.60;52.88;102711.00;5044821;28;20052;-66
2021/04/13 01:44:39;;;;;;;8.93;0.40;;;;;;;1.72;52.33;102709.59;5079930;28;20058;-66
2021/04/13 01:47:07;;;;;;;3.17;0.30;;;;;;;1.68;52.25;102706.91;5078536;28;20027;-66
2021/04/13 01:49:40;;;;;;;4.18;0.75;;;;;;;1.73;51.98;102706.19;5077362;28;20246;-67
2021/04/13 01:52:18;;;;;;;7.85;0.50;;;;;;;1.56;52.57;102709.16;5079064;28;20122;-67
2021/04/13 01:54:44;;;;;;;1.90;1.13;;;;;;;1.66;52.10;102716.28;5077978;28;20585;-67
2021/04/13 01:57:23;;;;;;;7.25;0.77;;;;;;;1.23;53.19;102707.34;5077257;28;20036;-66
2021/04/13 01:59:54;;;;;;;3.58;0.30;;;;;;;1.49;52.31;102715.84;5095010;28;20028;-67
2021/04/13 02:02:29;;;;;;;3.88;0.30;;;;;;;1.47;52.36;102713.22;5077359;28;20753;-66
2021/04/13 02:05:04;;;;;;;4.03;0.35;;;;;;;1.29;52.38;102704.97;5077268;28;20023;-66
2021/04/13 02:08:01;;;;;;;5.95;0.38;;;;;;;1.54;50.71;102700.50;5074200;28;20155;-67
2021/04/13 02:10:35;;;;;;;2.05;0.10;;;;;;;1.68;49.15;102705.19;5079395;28;20501;-67
2021/04/13 02:13:17;;;;;;;3.72;0.10;;;;;;;1.93;48.10;102698.97;5063768;28;20062;-66
2021/04/13 02:15:51;;;;;;;3.95;0.00;;;;;;;1.70;48.73;102710.38;5077249;28;20077;-67
2021/04/13 02:18:23;;;;;;;0.08;0.00;;;;;;;1.50;49.27;102710.72;5078237;28;20043;-68
2021/04/13 02:20:51;;;;;;;0.65;0.00;;;;;;;1.51;49.25;102715.06;5078363;28;20035;-66
2021/04/13 02:23:27;;;;;;;0.73;0.00;;;;;;;1.33;50.08;102711.94;5079056;28;20039;-67
2021/04/13 02:25:54;;;;;;;1.83;0.10;;;;;;;1.44;50.03;102708.00;5074277;28;20064;-66
2021/04/13 02:28:20;;;;;;;2.80;0.50;;;;;;;1.70;48.91;102713.84;5061224;28;20055;-67
2021/04/13 02:30:47;;;;;;;2.67;0.10;;;;;;;1.57;50.34;102714.34;5059130;28;20039;-66
2021/04/13 02:33:18;;;;;;;1.13;0.10;;;;;;;1.41;50.90;102720.78;5076025;28;20040;-66
2021/04/13 02:35:45;;;;;;;3.20;0.10;;;;;;;1.66;50.27;102717.19;5073459;28;20041;-66
2021/04/13 02:38:15;;;;;;;0.70;0.10;;;;;;;1.39;51.20;102719.81;5092140;28;20433;-67
2021/04/13 02:40:57;;;;;;;3.97;0.30;;;;;;;1.22;51.76;102723.66;5060975;28;20103;-65
2021/04/13 02:43:28;;;;;;;6.90;0.22;;;;;;;1.23;52.03;102715.94;5094089;28;20028;-67
2021/04/13 02:45:58;;;;;;;1.80;0.10;;;;;;;1.43;51.20;102719.13;5072904;28;20474;-67
2021/04/13 02:48:31;;;;;;;1.13;0.10;;;;;;;1.22;51.83;102719.38;5078460;28;20024;-67
2021/04/13 02:51:03;;;;;;;6.38;0.30;;;;;;;1.36;51.54;102721.47;5059928;28;20032;-66
2021/04/13 02:53:38;;;;;;;4.25;0.22;;;;;;;1.36;51.46;102718.88;5079260;28;20106;-68
2021/04/13 02:56:08;;;;;;;2.70;0.22;;;;;;;1.05;52.24;102726.59;5077876;28;20035;-67
2021/04/13 02:58:43;;;;;;;4.70;0.38;;;;;;;0.90;52.31;102716.75;5060108;28;20111;-67
2021/04/13 03:01:11;;;;;;;2.78;0.22;;;;;;;1.22;51.24;102719.38;5079158;28;20451;-66
2021/04/13 03:03:42;;;;;;;3.20;0.20;;;;;;;1.42;50.73;102727.69;5092062;28;20032;-67
2021/04/13 03:06:08;;;;;;;5.38;0.20;;;;;;;1.35;50.86;102720.59;5078281;28;20056;-67
2021/04/13 03:08:37;;;;;;;3.75;0.20;;;;;;;1.38;50.75;102722.38;5077846;28;20056;-66
2021/04/13 03:11:23;;;;;;;3.55;0.15;;;;;;;1.20;51.40;102730.47;5075950;28;20084;-67
2021/04/13 03:13:52;;;;;;;3.05;0.10;;;;;;;1.39;50.89;102730.13;5077582;28;20209;-67
2021/04/13 03:16:19;;;;;;;3.03;0.25;;;;;;;1.30;51.29;102724.72;5075043;28;22178;-67
2021/04/13 03:18:47;;;;;;;5.85;0.20;;;;;;;1.34;50.94;102729.13;5076237;28;20132;-66
2021/04/13 03:21:18;;;;;;;5.32;0.50;;;;;;;1.60;50.18;102731.63;5092563;28;20062;-66
2021/04/13 03:23:45;;;;;;;9.63;0.30;;;;;;;1.36;50.67;102727.47;5070110;28;20145;-66
2021/04/13 03:26:22;;;;;;;5.90;0.20;;;;;;;1.75;49.86;102732.00;5079746;28;20066;-66
2021/04/13 03:28:54;;;;;;;2.22;0.25;;;;;;;1.92;49.32;102735.03;5078046;28;20057;-66
2021/04/13 03:31:21;;;;;;;6.43;0.47;;;;;;;1.48;50.25;102738.19;5081811;28;20036;-67
2021/04/13 03:33:48;;;;;;;4.15;0.25;;;;;;;1.77;49.44;102727.75;5080169;28;20039;-67
2021/04/13 03:36:22;;;;;;;2.92;0.20;;;;;;;1.83;49.34;102735.66;5082776;28;20024;-67
2021/04/13 03:38:54;;;;;;;7.43;0.32;;;;;;;1.60;49.91;102729.03;5078948;28;20439;-66
2021/04/13 03:41:21;;;;;;;2.05;0.35;;;;;;;1.82;49.51;102733.94;5079970;28;20033;-66
2021/04/13 03:43:54;;;;;;;10.32;0.63;;;;;;;1.93;49.21;102736.78;5066666;28;20028;-66
2021/04/13 03:46:21;;;;;;;5.88;0.52;;;;;;;2.03;49.00;102735.31;5082027;28;20117;-66
2021/04/13 03:48:49;;;;;;;5.47;0.22;;;;;;;1.82;49.71;102733.94;5080353;28;20451;-66
2021/04/13 03:51:25;;;;;;;2.80;0.10;;;;;;;2.07;48.82;102740.59;5081494;28;20153;-66
2021/04/13 03:53:51;;;;;;;3.70;0.55;;;;;;;1.69;50.04;102737.00;5058794;28;20033;-66
2021/04/13 03:56:20;;;;;;;5.65;0.22;;;;;;;1.74;49.81;102738.00;5078319;28;20028;-67
2021/04/13 03:58:49;;;;;;;4.47;0.20;;;;;;;1.98;49.10;102739.50;5084077;28;20560;-67
2021/04/13 04:01:20;;;;;;;15.15;0.55;;;;;;;1.93;49.41;102739.38;5078609;28;20567;-67
2021/04/13 04:03:52;;;;;;;0.68;0.10;;;;;;;1.99;49.20;102736.06;5077825;28;20516;-67
2021/04/13 04:06:58;;;;;;;6.53;0.20;;;;;;;1.63;50.32;102736.84;5081771;28;20147;-67
2021/04/13 04:09:30;;;;;;;1.73;0.10;;;;;;;1.40;51.30;102739.66;5078047;28;20028;-66
2021/04/13 04:11:58;;;;;;;1.58;0.17;;;;;;;1.38;50.89;102746.44;5078481;28;20043;-66
2021/04/13 04:14:26;;;;;;;4.40;0.30;;;;;;;1.66;50.01;102747.22;5079004;28;20032;-67
2021/04/13 04:17:02;;;;;;;4.40;0.40;;;;;;;1.27;50.81;102743.56;5078554;28;20051;-66
2021/04/13 04:19:29;;;;;;;3.15;0.20;;;;;;;1.50;50.06;102746.78;5066083;28;20044;-66
2021/04/13 04:22:07;;;;;;;4.05;0.20;;;;;;;1.52;49.70;102741.69;5078973;28;20028;-68
2021/04/13 04:24:39;;;;;;;4.05;0.73;;;;;;;1.52;49.48;102745.13;5080492;28;20071;-67
2021/04/13 04:27:23;;;;;;;;;;;;;;;1.45;49.38;102755.25;5095396;28;20617;-67
2021/04/13 04:30:03;;;;;;;5.80;0.85;;;;;;;1.18;50.71;102757.88;5079979;28;20440;-67
2021/04/13 04:32:29;;;;;;;3.13;0.30;;;;;;;1.30;50.18;102765.94;5078965;28;20028;-67
2021/04/13 04:34:57;;;;;;;9.10;0.30;;;;;;;1.15;50.88;102768.06;5079917;28;20378;-68
2021/04/13 04:37:35;;;;;;;5.15;0.30;;;;;;;1.11;50.62;102773.13;5079525;28;20513;-66
2021/04/13 04:40:15;;;;;;;7.57;0.40;;;;;;;1.28;50.39;102770.19;5093518;28;20048;-66
2021/04/13 04:42:51;;;;;;;5.65;0.43;;;;;;;1.34;50.62;102778.09;5080548;28;20028;-67
2021/04/13 04:45:19;;;;;;;3.58;0.20;;;;;;;1.33;50.57;102784.09;5076572;28;20028;-66
2021/04/13 04:47:47;;;;;;;12.23;0.65;;;;;;;1.37;50.49;102785.03;5077784;28;20860;-66
2021/04/13 04:50:16;;;;;;;5.85;0.52;;;;;;;1.40;50.56;102791.19;5077698;28;20044;-66
2021/04/13 04:52:43;;;;;;;4.15;0.20;;;;;;;1.43;50.40;102791.28;5091733;28;20040;-66
2021/04/13 04:55:09;;;;;;;5.28;0.38;;;;;;;1.45;50.36;102789.63;5062735;28;20035;-66
2021/04/13 04:57:35;;;;;;;6.90;0.28;;;;;;;1.30;51.17;102794.28;5082379;28;20016;-67
2021/04/13 05:00:00;;;;;;;3.80;0.28;;;;;;;1.56;50.49;102797.66;5077195;28;20397;-67
2021/04/13 05:02:26;;;;;;;16.38;0.77;;;;;;;1.61;50.64;102790.91;5081639;28;20034;-67
2021/04/13 05:04:52;;;;;;;3.03;0.32;;;;;;;1.72;50.24;102798.97;5075713;28;20101;-67
2021/04/13 05:07:18;;;;;;;5.85;0.80;;;;;;;1.88;50.01;102801.13;5079136;28;20044;-67
2021/04/13 05:09:43;;;;;;;7.07;1.17;;;;;;;1.99;49.99;102798.81;5080470;28;20371;-66
2021/04/13 05:12:09;;;;;;;5.13;1.02;;;;;;;2.21;49.46;102784.78;5075856;28;20039;-66
2021/04/13 05:14:35;;;;;;;8.50;0.35;;;;;;;2.28;49.00;102785.81;5081803;28;20098;-65
2021/04/13 05:17:00;;;;;;;7.53;0.65;;;;;;;2.39;48.98;102792.13;5076737;28;20036;-66
2021/04/13 05:19:26;;;;;;;8.95;0.35;;;;;;;2.48;48.39;102789.75;5080080;28;20028;-66
2021/04/13 05:21:52;;;;;;;3.72;0.50;;;;;;;2.37;48.25;102798.09;5077109;28;20115;-66
2021/04/13 05:24:17;;;;;;;7.55;0.50;;;;;;;2.50;48.31;102787.22;5077800;28;20473;-66
2021/04/13 05:26:43;;;;;;;3.88;0.35;;;;;;;2.55;48.21;102801.09;5076592;28;20041;-66
2021/04/13 05:29:08;;;;;;;7.72;1.25;;;;;;;2.78;48.16;102804.25;5061726;28;20032;-66
2021/04/13 05:31:36;;;;;;;7.20;0.60;;;;;;;3.94;45.96;102805.88;5079034;28;20398;-67
2021/04/13 05:34:02;;;;;;;4.60;0.50;;;;;;;4.33;43.19;102806.56;5079750;28;20443;-66
2021/04/13 05:36:28;;;;;;;3.72;0.30;;;;;;;3.92;44.38;102817.91;5078608;28;20034;-66
2021/04/13 05:38:53;;;;;;;6.50;0.80;;;;;;;3.32;45.50;102813.25;5079816;28;20428;-66
2021/04/13 05:41:19;;;;;;;6.93;0.55;;;;;;;2.84;46.98;102822.47;5076595;28;20029;-68
2021/04/13 05:43:45;;;;;;;6.30;0.38;;;;;;;2.76;47.41;102826.59;5080226;28;20099;-66
2021/04/13 05:46:19;;;;;;;6.57;1.10;;;;;;;4.55;44.76;102826.78;5081468;28;20031;-66
2021/04/13 05:48:45;;;;;;;7.85;0.28;;;;;;;4.93;42.06;102838.63;5077663;28;20028;-67
2021/04/13 05:51:11;;;;;;;8.15;0.75;;;;;;;4.40;42.99;102850.69;5080036;28;20032;-66
2021/04/13 05:53:36;;;;;;;1.38;0.15;;;;;;;3.38;45.70;102858.19;5077572;28;20036;-67
2021/04/13 05:56:02;;;;;;;3.42;0.70;;;;;;;3.56;45.64;102846.47;5081350;28;20051;-67
2021/04/13 05:58:38;;;;;;;13.95;0.47;;;;;;;3.58;45.36;102848.28;5079356;28;20035;-66
2021/04/13 06:01:07;;;;;;;3.03;0.35;;;;;;;3.52;45.86;102853.31;5076659;28;20036;-66
2021/04/13 06:03:34;;;;;;;4.05;0.40;;;;;;;3.03;47.32;102856.50;5077002;28;20028;-65
2021/04/13 06:06:00;;;;;;;9.48;0.20;;;;;;;3.11;47.57;102861.00;5079995;28;20039;-68
2021/04/13 06:08:26;;;;;;;1.45;0.20;;;;;;;3.10;48.00;102869.56;5079328;28;20654;-67
2021/04/13 06:10:58;;;;;;;4.70;0.47;;;;;;;3.39;47.33;102872.84;5065131;28;20032;-66
2021/04/13 06:13:26;;;;;;;3.22;0.40;;;;;;;3.60;47.13;102876.72;5072663;28;20024;-67
2021/04/13 06:15:54;;;;;;;3.47;0.52;;;;;;;4.59;45.80;102885.56;5076283;28;20094;-68
2021/04/13 06:18:20;;;;;;;3.08;0.90;;;;;;;5.70;42.84;102878.56;5082393;28;20111;-67
2021/04/13 06:20:46;;;;;;;5.45;0.43;;;;;;;5.80;42.47;102885.63;5079093;28;20114;-67
2021/04/13 06:23:12;;;;;;;4.57;0.45;;;;;;;6.43;40.86;102875.94;5077249;28;20485;-67
2021/04/13 06:25:37;;;;;;;2.75;0.20;;;;;;;6.78;38.76;102881.44;5070337;28;20054;-67
2021/04/13 06:28:03;;;;;;;3.28;0.20;;;;;;;5.79;40.39;102883.88;5079218;28;20028;-67
2021/04/13 06:30:31;;;;;;;3.75;0.95;;;;;;;6.25;40.27;102887.00;5073183;28;20033;-67
2021/04/13 06:32:58;;;;;;;5.60;0.40;;;;;;;6.59;39.54;102893.41;5078884;28;20457;-66
2021/04/13 06:35:24;;;;;;;7.97;0.50;;;;;;;6.55;39.42;102895.97;5079244;28;20111;-67
2021/04/13 06:37:52;;;;;;;5.38;0.20;;;;;;;7.87;37.45;102896.84;5084313;28;20511;-68
2021/04/13 06:40:27;;;;;;;8.05;0.20;;;;;;;10.72;33.21;102890.13;5079158;28;20540;-67
2021/04/13 06:43:05;;;;;;;9.02;0.20;;;;;;;13.65;28.77;102887.72;5077926;28;20056;-67
2021/04/13 06:45:40;;;;;;;4.53;0.20;;;;;;;13.25;27.20;102890.22;5081488;28;20028;-67
2021/04/13 06:48:09;;;;;;;1.85;0.22;;;;;;;11.45;29.51;102898.19;5061746;28;20032;-66
2021/04/13 06:50:53;;;;;;;12.85;0.93;;;;;;;9.78;32.68;102898.53;5074169;28;20032;-66
2021/04/13 06:53:43;;;;;;;8.27;0.30;;;;;;;9.06;32.87;102900.50;5078575;28;20413;-67
2021/04/13 06:56:45;;;;;;;2.83;0.43;;;;;;;11.23;31.51;102895.78;5075891;28;20035;-68
2021/04/13 06:59:33;;;;;;;3.65;0.30;;;;;;;13.75;26.84;102893.63;5077579;28;20035;-67
2021/04/13 07:02:00;;;;;;;0.95;0.30;;;;;;;14.84;25.14;102890.22;5078938;28;20047;-67
2021/04/13 07:04:38;;;;;;;4.13;0.45;;;;;;;13.91;25.28;102889.75;5078092;28;20070;-68
2021/04/13 07:07:26;;;;;;;4.65;0.20;;;;;;;15.32;24.20;102895.09;5075176;28;20058;-67
2021/04/13 07:10:15;;;;;;;4.85;0.20;;;;;;;15.42;24.03;102896.56;5073329;28;20020;-66
2021/04/13 07:12:44;;;;;;;8.05;0.85;;;;;;;15.47;23.61;102892.03;5081405;28;20032;-68
2021/04/13 07:15:17;;;;;;;2.55;0.10;;;;;;;16.85;21.86;102899.19;5069968;28;20447;-67
2021/04/13 07:17:54;;;;;;;4.20;0.10;;;;;;;16.95;22.08;102897.94;5078084;28;20556;-67
2021/04/13 07:20:23;;;;;;;3.15;0.20;;;;;;;17.30;21.16;102901.09;5075829;28;20016;-68
2021/04/13 07:23:06;;;;;;;4.10;0.22;;;;;;;17.26;21.70;102902.13;5078633;28;20404;-68
2021/04/13 07:25:39;;;;;;;3.10;0.70;;;;;;;17.10;22.00;102901.81;5077795;28;20035;-67
2021/04/13 07:28:10;;;;;;;2.17;0.38;;;;;;;16.14;22.79;102893.56;5074542;28;20416;-68
2021/04/13 07:30:43;;;;;;;11.05;0.50;;;;;;;14.04;25.44;102897.41;5073262;28;20051;-68
2021/04/13 07:33:13;;;;;;;8.57;0.57;;;;;;;12.75;26.70;102895.50;5076674;28;20044;-67
2021/04/13 07:35:39;;;;;;;7.18;0.25;;;;;;;13.96;25.10;102909.84;5080385;28;20043;-67
2021/04/13 07:38:11;;;;;;;8.27;0.70;;;;;;;14.17;25.33;102906.72;5076838;28;20043;-68
2021/04/13 07:40:38;;;;;;;;;;;;;;;13.03;25.98;102898.53;5075752;28;20051;-67
2021/04/13 07:43:10;;;;;;;9.45;0.50;;;;;;;10.73;29.41;102904.09;5079958;28;20019;-67
2021/04/13 07:46:12;;;;;;;5.45;0.47;;;;;;;10.19;31.24;102913.19;5078099;28;20476;-66
2021/04/13 07:49:05;;;;;;;3.33;0.35;;;;;;;8.70;32.69;102917.88;5078352;28;20088;-68
2021/04/13 07:51:42;;;;;;;6.22;0.60;;;;;;;9.93;31.00;102917.69;5077656;28;20031;-68
2021/04/13 07:54:22;;;;;;;5.38;0.20;;;;;;;8.90;32.99;102924.00;5072621;28;20031;-67
2021/04/13 07:56:51;;;;;;;2.72;0.38;;;;;;;9.13;33.17;102920.50;5076031;28;20039;-70
2021/04/13 07:59:48;;;;;;;9.23;0.50;;;;;;;11.47;28.66;102912.13;5074514;28;20036;-67
2021/04/13 08:02:14;;;;;;;4.43;0.38;;;;;;;11.64;29.05;102914.53;5072002;28;20040;-67
2021/04/13 08:04:46;;;;;;;4.47;0.35;;;;;;;12.06;28.22;102914.91;5077493;28;20027;-66
2021/04/13 08:07:21;;;;;;;4.40;0.68;;;;;;;10.66;29.77;102918.09;5077857;28;20084;-67
2021/04/13 08:10:17;;;;;;;4.05;0.28;;;;;;;9.04;32.58;102928.34;5076548;28;20584;-66
2021/04/13 08:12:52;;;;;;;3.15;0.35;;;;;;;8.42;34.27;102925.66;5071495;28;20020;-66
2021/04/13 08:15:20;;;;;;;5.10;0.40;;;;;;;10.78;30.49;102931.94;5071967;28;20478;-67
2021/04/13 08:18:13;;;;;;;6.45;0.40;;;;;;;9.76;31.74;102952.53;5092213;28;20124;-67
2021/04/13 08:20:43;;;;;;;1.83;0.10;;;;;;;5.59;41.79;102962.34;5079423;28;20118;-66
2021/04/13 08:23:36;;;;;;;3.35;0.10;;;;;;;4.90;44.15;102962.94;5079450;28;20529;-66
2021/04/13 08:26:27;;;;;;;2.40;0.10;;;;;;;5.07;44.09;102964.09;5069874;28;20401;-67
2021/04/13 08:29:24;;;;;;;6.93;0.17;;;;;;;5.21;43.77;102965.22;5080911;28;20482;-66
2021/04/13 08:35:14;;;;;;;3.42;0.40;;;;;;;5.02;43.67;102965.75;5080235;28;20043;-67
2021/04/13 08:37:50;;;;;;;6.65;0.45;;;;;;;5.71;43.03;102968.53;5090873;28;20029;-66
2021/04/13 08:40:35;;;;;;;2.35;0.20;;;;;;;7.62;38.98;102967.00;5078467;28;20448;-66
2021/04/13 08:43:15;;;;;;;4.38;0.52;;;;;;;9.60;34.21;102966.50;5076036;28;20125;-68
2021/04/13 08:46:04;;;;;;;5.38;0.40;;;;;;;11.42;31.78;102961.94;5076507;28;20437;-67
2021/04/13 08:49:01;;;;;;;5.55;1.20;;;;;;;11.72;31.33;102972.09;5081371;28;20035;-67
2021/04/13 08:51:33;;;;;;;4.78;0.20;;;;;;;9.78;33.94;102978.66;5051653;28;20107;-67
2021/04/13 08:54:32;;;;;;;2.53;0.10;;;;;;;10.07;33.52;102980.31;5078131;28;20064;-67
2021/04/13 08:57:28;;;;;;;4.45;0.30;;;;;;;10.01;32.97;102983.81;5073272;28;20647;-66
2021/04/13 08:59:56;;;;;;;4.25;0.20;;;;;;;10.86;32.57;102975.50;5079355;28;20032;-67
2021/04/13 09:02:32;;;;;;;5.47;0.63;;;;;;;9.69;33.59;102982.16;5082509;28;20032;-67
2021/04/13 09:05:11;;;;;;;5.72;0.57;;;;;;;9.16;34.88;102988.31;5096012;28;20024;-66
2021/04/13 09:07:46;;;;;;;5.68;0.10;;;;;;;10.37;33.84;102979.28;5081017;28;20032;-67
2021/04/13 09:10:14;;;;;;;5.63;0.30;;;;;;;11.45;31.25;102985.44;5079344;28;20047;-68
2021/04/13 09:12:41;;;;;;;5.68;0.30;;;;;;;10.45;30.75;102985.34;5077599;28;20133;-67
2021/04/13 09:15:34;;;;;;;4.53;0.50;;;;;;;9.87;31.18;102988.22;5078441;28;20043;-67
2021/04/13 09:18:18;;;;;;;3.92;0.20;;;;;;;9.83;32.52;102984.75;5071552;28;20048;-68
2021/04/13 09:20:50;;;;;;;2.70;0.38;;;;;;;9.85;32.39;102987.38;5062418;28;20037;-67
2021/04/13 09:23:32;;;;;;;6.93;0.38;;;;;;;10.13;31.86;102991.63;5076576;28;20500;-66
2021/04/13 09:26:22;;;;;;;6.25;0.40;;;;;;;9.44;32.49;102985.69;5076699;28;20402;-66
2021/04/13 09:28:54;;;;;;;4.80;0.82;;;;;;;9.92;33.23;102984.75;5074798;28;20038;-66
2021/04/13 09:31:29;;;;;;;11.13;0.20;;;;;;;10.19;32.94;102986.38;5076423;28;20039;-67
2021/04/13 09:34:13;;;;;;;5.95;0.20;;;;;;;10.28;30.94;102984.56;5074106;28;20051;-67
2021/04/13 09:36:52;;;;;;;6.70;0.30;;;;;;;9.89;31.91;102984.72;5074546;28;20036;-67
2021/04/13 09:39:36;;;;;;;4.47;0.52;;;;;;;8.91;33.51;102985.69;5092496;28;20068;-66
2021/04/13 09:42:38;;;;;;;3.00;0.20;;;;;;;9.47;34.38;102981.31;5078962;28;20040;-68
2021/04/13 09:45:21;;;;;;;3.13;0.77;;;;;;;9.61;32.82;102981.31;5078970;28;20124;-66
2021/04/13 09:48:05;;;;;;;2.60;0.25;;;;;;;9.28;33.36;102996.16;5074662;28;20040;-66
2021/04/13 09:50:57;;;;;;;3.17;0.38;;;;;;;9.67;33.31;102989.13;5079102;28;20486;-67
2021/04/13 09:53:47;;;;;;;3.13;0.50;;;;;;;11.02;31.91;102983.25;5060966;28;20314;-66
2021/04/13 09:56:37;;;;;;;5.55;0.35;;;;;;;11.52;29.67;102977.53;5069082;28;20051;-66
2021/04/13 09:59:08;;;;;;;3.13;0.40;;;;;;;9.80;31.91;102985.63;5077245;28;20121;-66
2021/04/13 10:01:53;;;;;;;2.78;0.30;;;;;;;8.44;32.46;102983.84;5078671;28;20032;-66
2021/04/13 10:04:40;;;;;;;5.90;0.20;;;;;;;8.32;33.22;102979.50;5076685;28;20081;-66
2021/04/13 10:07:27;;;;;;;6.28;0.55;;;;;;;8.36;33.43;102977.78;5075148;28;20035;-67
2021/04/13 10:09:56;;;;;;;7.18;1.15;;;;;;;7.98;34.48;102986.31;5077008;28;20055;-65
2021/04/13 10:12:39;;;;;;;7.80;0.70;;;;;;;7.79;35.16;102982.72;5073790;28;20055;-68
2021/04/13 10:15:14;;;;;;;9.48;0.73;;;;;;;9.01;33.62;102970.06;5073152;28;20036;-68
2021/04/13 10:17:54;;;;;;;4.25;0.47;;;;;;;8.76;34.13;102976.16;5078064;28;20127;-66
2021/04/13 10:20:29;;;;;;;4.07;0.50;;;;;;;7.58;35.27;102998.22;5075055;28;20040;-66
2021/04/13 10:23:32;;;;;;;5.97;0.30;;;;;;;7.01;38.91;102995.16;5073695;28;20028;-68
2021/04/13 10:26:26;;;;;;;3.08;0.32;;;;;;;6.57;39.42;103003.38;5077718;28;20016;-68
2021/04/13 10:29:28;;;;;;;6.60;1.55;;;;;;;5.63;40.31;103003.00;5073041;28;20114;-66
2021/04/13 10:32:12;;;;;;;2.80;0.10;;;;;;;5.70;40.09;103011.75;5073984;28;20032;-67
2021/04/13 10:34:58;;;;;;;0.30;0.00;;;;;;;5.16;40.61;103018.69;5059377;28;20189;-66
2021/04/13 10:37:45;;;;;;;1.50;0.00;;;;;;;4.63;42.76;103037.59;5075524;28;20062;-66
2021/04/13 10:40:33;;;;;;;1.23;0.20;;;;;;;5.03;43.00;103027.09;5077757;28;20040;-67
2021/04/13 10:43:36;;;;;;;0.85;0.15;;;;;;;5.23;42.53;103040.41;5074673;28;20039;-65
2021/04/13 10:46:24;;;;;;;0.50;0.10;;;;;;;5.10;43.08;103034.16;5074099;28;20032;-68
2021/04/13 10:49:13;;;;;;;1.58;0.32;;;;;;;4.96;42.70;103030.44;5075611;28;20564;-67
2021/04/13 10:52:20;;;;;;;2.13;0.30;;;;;;;5.76;41.79;103029.16;5077781;28;20049;-66
2021/04/13 10:55:14;;;;;;;3.25;0.10;;;;;;;6.38;40.80;103039.53;5092941;28;20505;-67
2021/04/13 10:58:24;;;;;;;1.25;0.10;;;;;;;7.69;39.20;103028.69;5071170;28;20078;-67
2021/04/13 11:01:40;;;;;;;2.17;0.10;;;;;;;8.84;36.44;103025.69;5075645;28;20681;-66
2021/04/13 11:04:43;;;;;;;3.67;0.40;;;;;;;9.46;36.03;103010.06;5071036;28;20032;-67
2021/04/13 11:07:46;;;;;;;10.35;0.63;;;;;;;9.27;35.61;103011.81;5070357;28;20040;-66
2021/04/13 11:10:30;;;;;;;7.15;0.52;;;;;;;8.85;35.94;103010.91;5067475;28;20039;-66
2021/04/13 11:13:07;;;;;;;3.58;0.20;;;;;;;8.57;36.74;103016.91;5074801;28;20028;-68
2021/04/13 11:15:36;;;;;;;5.32;0.88;;;;;;;7.71;37.68;103016.53;5069354;28;20241;-65
2021/04/13 11:18:17;;;;;;;4.97;0.25;;;;;;;7.67;37.93;103004.38;5070620;28;20043;-66
2021/04/13 11:20:59;;;;;;;6.07;0.47;;;;;;;8.49;35.95;102995.16;5077953;28;20037;-66
2021/04/13 11:23:53;;;;;;;2.60;0.10;;;;;;;9.41;34.42;102991.81;5073225;28;20434;-67
2021/04/13 11:26:52;;;;;;;4.13;0.20;;;;;;;8.64;34.42;102989.13;5071803;28;20040;-66
2021/04/13 11:29:37;;;;;;;7.32;0.30;;;;;;;9.04;33.77;102996.16;5056845;28;20040;-66
2021/04/13 11:32:27;;;;;;;1.58;0.20;;;;;;;7.59;35.28;103000.84;5070832;28;20051;-66
2021/04/13 11:34:58;;;;;;;3.55;0.20;;;;;;;8.67;33.93;102996.06;5075309;28;20032;-67
2021/04/13 11:37:42;;;;;;;3.57;0.10;;;;;;;8.40;34.79;103002.94;5072746;28;20039;-66
2021/04/13 11:40:48;;;;;;;4.70;0.40;;;;;;;9.88;33.08;103001.28;5075990;28;20081;-66
2021/04/13 11:43:17;;;;;;;3.80;0.20;;;;;;;10.22;31.03;102990.72;5042228;28;20044;-66
2021/04/13 11:45:58;;;;;;;1.02;0.40;;;;;;;10.18;30.67;102989.84;5077452;28;20036;-66
2021/04/13 11:48:25;;;;;;;2.45;0.10;;;;;;;10.20;31.37;102985.47;5075043;28;20054;-66
2021/04/13 11:51:02;;;;;;;4.40;0.43;;;;;;;10.29;31.80;102988.94;5067462;28;20516;-67
2021/04/13 11:53:37;;;;;;;6.60;0.20;;;;;;;9.19;33.17;102988.34;5076204;28;20401;-66
2021/04/13 11:56:24;;;;;;;8.40;0.82;;;;;;;8.00;34.82;102989.78;5074544;28;20169;-66
2021/04/13 11:59:18;;;;;;;3.40;0.13;;;;;;;6.64;36.64;103006.06;5083788;28;20449;-66
2021/04/13 12:02:17;;;;;;;2.70;0.10;;;;;;;6.91;36.19;103002.88;5080843;28;20032;-66
2021/04/13 12:04:46;;;;;;;1.88;0.17;;;;;;;8.42;34.77;102993.41;5026509;28;20036;-66
2021/04/13 12:07:12;;;;;;;3.35;0.20;;;;;;;8.61;33.08;102996.09;5076921;28;20040;-66
2021/04/13 12:10:00;;;;;;;4.55;0.30;;;;;;;9.36;32.25;103004.81;5072527;28;20024;-66
2021/04/13 12:12:32;;;;;;;4.47;0.30;;;;;;;7.96;33.01;102998.47;5074383;28;20032;-64
2021/04/13 12:15:05;;;;;;;9.40;0.30;;;;;;;7.01;35.35;103000.34;5078242;28;20035;-66
2021/04/13 12:17:43;;;;;;;7.15;0.35;;;;;;;6.85;35.92;103004.53;5079453;28;20111;-66
2021/04/13 12:20:24;;;;;;;6.32;0.20;;;;;;;7.46;35.66;103004.19;5069245;28;20038;-67